| time (UTC) | temp F | wind direction | speed knots | gust knots | rain 1hr in | rain 24hr in | rain mn in | humidity % | barometer mb |
| 20260503211334 | 60 | 251 | 4.3 | 9.6 | 0.00 | 0.00 | 0.00 | 40 | 1010.7 |
| 20260503210837 | 60 | 284 | 4.3 | 13.9 | 0.00 | 0.00 | 0.00 | 42 | 1010.7 |
| 20260503210325 | 60 | 238 | 7.8 | 13.9 | 0.00 | 0.00 | 0.00 | 40 | 1010.9 |
| 20260503205828 | 60 | 216 | 7.0 | 12.2 | 0.00 | 0.00 | 0.00 | 42 | 1010.7 |
| 20260503205311 | 60 | 244 | 7.0 | 12.2 | 0.00 | 0.00 | 0.00 | 42 | 1010.8 |
| 20260503204813 | 60 | 240 | 5.2 | 15.6 | 0.00 | 0.00 | 0.00 | 41 | 1010.7 |
| 20260503204322 | 60 | 222 | 7.0 | 15.6 | 0.00 | 0.00 | 0.00 | 40 | 1010.8 |
| 20260503203825 | 60 | 232 | 4.3 | 7.8 | 0.00 | 0.00 | 0.00 | 41 | 1010.7 |
| 20260503203328 | 60 | 202 | 4.3 | 7.8 | 0.00 | 0.00 | 0.00 | 40 | 1010.8 |
| 20260503202811 | 60 | 211 | 4.3 | 8.7 | 0.00 | 0.00 | 0.00 | 40 | 1010.8 |
| 20260503202320 | 60 | 208 | 5.2 | 11.3 | 0.00 | 0.00 | 0.00 | 40 | 1010.9 |
| 20260503201823 | 60 | 240 | 5.2 | 11.3 | 0.00 | 0.00 | 0.00 | 40 | 1011.0 |
| 20260503201326 | 60 | 218 | 6.1 | 11.3 | 0.00 | 0.00 | 0.00 | 40 | 1010.9 |
| 20260503200835 | 60 | 221 | 6.1 | 11.3 | 0.00 | 0.00 | 0.00 | 39 | 1011.0 |
| 20260503200316 | 61 | 244 | 4.3 | 13.0 | 0.00 | 0.00 | 0.00 | 39 | 1011.0 |
| 20260503195818 | 61 | 229 | 5.2 | 10.4 | 0.00 | 0.00 | 0.00 | 39 | 1011.1 |
| 20260503195328 | 61 | 210 | 3.5 | 9.6 | 0.00 | 0.00 | 0.00 | 40 | 1011.3 |
| 20260503194810 | 61 | 234 | 6.1 | 9.6 | 0.00 | 0.00 | 0.00 | 40 | 1011.4 |
| 20260503194313 | 60 | 234 | 6.1 | 9.6 | 0.00 | 0.00 | 0.00 | 39 | 1011.4 |
| 20260503193843 | 60 | 246 | 4.3 | 9.6 | 0.00 | 0.00 | 0.00 | 40 | 1011.4 |
| 20260503193325 | 60 | 255 | 5.2 | 12.2 | 0.00 | 0.00 | 0.00 | 41 | 1011.7 |
| 20260503192826 | 60 | 248 | 4.3 | 12.2 | 0.00 | 0.00 | 0.00 | 40 | 1011.7 |
| 20260503192335 | 60 | 249 | 4.3 | 10.4 | 0.00 | 0.00 | 0.00 | 40 | 1011.8 |
| 20260503191818 | 61 | 218 | 6.1 | 13.9 | 0.00 | 0.00 | 0.00 | 42 | 1011.9 |
| 20260503191341 | 60 | 219 | 4.3 | 13.9 | 0.00 | 0.00 | 0.00 | 40 | 1011.8 |
| 20260503190828 | 60 | 227 | 4.3 | 9.6 | 0.00 | 0.00 | 0.00 | 42 | 1011.8 |
| 20260503190311 | 60 | 253 | 6.1 | 14.8 | 0.00 | 0.00 | 0.00 | 40 | 1012.0 |
| 20260503185835 | 60 | 208 | 5.2 | 14.8 | 0.00 | 0.00 | 0.00 | 41 | 1012.0 |
| 20260503185317 | 60 | 209 | 4.3 | 9.6 | 0.00 | 0.00 | 0.00 | 41 | 1012.2 |
| 20260503184819 | 60 | 223 | 4.3 | 8.7 | 0.00 | 0.00 | 0.00 | 41 | 1012.3 |
| 20260503184321 | 60 | 250 | 4.3 | 7.8 | 0.00 | 0.00 | 0.00 | 42 | 1012.3 |
| 20260503183830 | 60 | 284 | 4.3 | 9.6 | 0.00 | 0.00 | 0.00 | 41 | 1012.4 |
| 20260503183315 | 60 | 253 | 4.3 | 9.6 | 0.00 | 0.00 | 0.00 | 43 | 1012.4 |
| 20260503182818 | 60 | 272 | 2.6 | 9.6 | 0.00 | 0.00 | 0.00 | 44 | 1012.4 |
| 20260503182344 | 59 | 250 | 3.5 | 8.7 | 0.00 | 0.00 | 0.00 | 45 | 1012.3 |
| 20260503181846 | 59 | 274 | 4.3 | 11.3 | 0.00 | 0.00 | 0.00 | 44 | 1012.4 |
| 20260503181334 | 58 | 258 | 5.2 | 11.3 | 0.00 | 0.00 | 0.00 | 48 | 1012.5 |
| 20260503180816 | 58 | 260 | 3.5 | 8.7 | 0.00 | 0.00 | 0.00 | 51 | 1012.7 |
| 20260503180346 | 58 | 254 | 5.2 | 8.7 | 0.00 | 0.00 | 0.00 | 49 | 1012.8 |
| 20260503175827 | 58 | 250 | 2.6 | 8.7 | 0.00 | 0.00 | 0.00 | 50 | 1012.9 |
| 20260503175309 | 58 | 251 | 3.5 | 8.7 | 0.00 | 0.00 | 0.00 | 51 | 1012.9 |
| 20260503174836 | 58 | 272 | 3.5 | 8.7 | 0.00 | 0.00 | 0.00 | 50 | 1013.0 |
| 20260503174317 | 58 | 234 | 4.3 | 7.8 | 0.00 | 0.00 | 0.00 | 49 | 1013.1 |
| 20260503173821 | 58 | 256 | 4.3 | 11.3 | 0.00 | 0.00 | 0.00 | 49 | 1013.1 |
| 20260503173323 | 59 | 246 | 5.2 | 11.3 | 0.00 | 0.00 | 0.00 | 47 | 1013.1 |
| 20260503172833 | 59 | 264 | 3.5 | 7.8 | 0.00 | 0.00 | 0.00 | 48 | 1013.1 |
| 20260503172313 | 59 | 247 | 5.2 | 7.8 | 0.00 | 0.00 | 0.00 | 46 | 1013.2 |
| 20260503171816 | 59 | 219 | 3.5 | 7.8 | 0.00 | 0.00 | 0.00 | 45 | 1013.2 |
| 20260503171324 | 59 | 229 | 2.6 | 8.7 | 0.00 | 0.00 | 0.00 | 47 | 1013.3 |
| 20260503170811 | 59 | 262 | 3.5 | 11.3 | 0.00 | 0.00 | 0.00 | 44 | 1013.3 |
| 20260503170337 | 59 | 228 | 2.6 | 7.0 | 0.00 | 0.00 | 0.00 | 48 | 1013.4 |
| 20260503150813 | 54 | 241 | 5.2 | 13.0 | 0.00 | 0.00 | 0.00 | 48 | 1014.5 |
| 20260503150323 | 54 | 242 | 6.1 | 13.0 | 0.00 | 0.00 | 0.00 | 47 | 1014.5 |
| 20260503140312 | 51 | 209 | 4.3 | 8.7 | 0.00 | 0.00 | 0.00 | 51 | 1014.6 |
| 20260503131329 | 47 | 213 | 3.5 | 8.7 | 0.00 | 0.00 | 0.00 | 58 | 1015.2 |
| 20260503130828 | 46 | 225 | 3.5 | 8.7 | 0.00 | 0.00 | 0.00 | 59 | 1015.2 |
| 20260503130327 | 46 | 205 | 4.3 | 8.7 | 0.00 | 0.02 | 0.00 | 60 | 1015.2 |
| 20260503110817 | 36 | 180 | 2.6 | 3.5 | 0.00 | 0.03 | 0.00 | 81 | 1015.3 |
| 20260503110319 | 36 | 175 | 1.7 | 4.3 | 0.00 | 0.04 | 0.00 | 81 | 1015.2 |
| 20260503090310 | 37 | 193 | 1.7 | 2.6 | 0.00 | 0.05 | 0.00 | 78 | 1014.9 |
| 20260503081327 | 38 | 212 | 1.7 | 3.5 | 0.00 | 0.05 | 0.00 | 76 | 1015.1 |
| 20260503080837 | 38 | 204 | 1.7 | 3.5 | 0.00 | 0.05 | 0.00 | 77 | 1015.1 |
| 20260503080318 | 38 | 205 | 1.7 | 3.5 | 0.00 | 0.05 | 0.00 | 77 | 1015.2 |
| 20260503072829 | 39 | 199 | 1.7 | 3.5 | 0.00 | 0.05 | 0.00 | 77 | 1015.1 |
| 20260503072312 | 39 | 201 | 1.7 | 3.5 | 0.00 | 0.05 | 0.00 | 77 | 1015.1 |
| 20260503071815 | 39 | 207 | 1.7 | 3.5 | 0.00 | 0.05 | 0.00 | 78 | 1015.2 |
| 20260503071323 | 38 | 206 | 1.7 | 3.5 | 0.00 | 0.05 | 0.00 | 78 | 1015.1 |
| 20260503070846 | 38 | 205 | 1.7 | 2.6 | 0.00 | 0.05 | 0.00 | 78 | 1015.1 |
| 20260503070334 | 38 | 205 | 1.7 | 2.6 | 0.00 | 0.06 | 0.00 | 79 | 1015.1 |
| 20260503060313 | 39 | 183 | 2.6 | 3.5 | 0.00 | 0.14 | 0.00 | 82 | 1015.2 |
| 20260503054846 | 39 | 172 | 1.7 | 3.5 | 0.00 | 0.14 | 0.00 | 81 | 1015.3 |
| 20260503054324 | 39 | 187 | 2.6 | 3.5 | 0.00 | 0.14 | 0.00 | 81 | 1015.4 |
| 20260503053831 | 39 | 180 | 1.7 | 3.5 | 0.00 | 0.14 | 0.00 | 80 | 1015.4 |
| 20260503053312 | 39 | 178 | 1.7 | 3.5 | 0.00 | 0.14 | 0.00 | 80 | 1015.4 |
| 20260503052813 | 39 | 179 | 1.7 | 3.5 | 0.00 | 0.14 | 0.00 | 80 | 1015.4 |
| 20260503052340 | 39 | 178 | 0.9 | 3.5 | 0.00 | 0.14 | 0.00 | 79 | 1015.3 |
| 20260503051819 | 39 | 178 | 1.7 | 2.6 | 0.00 | 0.14 | 0.00 | 79 | 1015.4 |
| 20260503051319 | 40 | 178 | 1.7 | 2.6 | 0.00 | 0.14 | 0.00 | 79 | 1015.4 |
| 20260503050824 | 40 | 178 | 1.7 | 2.6 | 0.00 | 0.14 | 0.00 | 78 | 1015.5 |
| 20260503050325 | 40 | 178 | 0.9 | 3.5 | 0.00 | 0.14 | 0.00 | 78 | 1015.5 |
| 20260503045852 | 40 | 179 | 1.7 | 3.5 | 0.00 | 0.14 | 0.00 | 78 | 1015.5 |
| 20260503045311 | 40 | 181 | 1.7 | 3.5 | 0.00 | 0.14 | 0.00 | 78 | 1015.5 |
| 20260503044811 | 40 | 184 | 1.7 | 3.5 | 0.00 | 0.14 | 0.00 | 77 | 1015.6 |
| 20260503044318 | 40 | 186 | 0.9 | 3.5 | 0.00 | 0.14 | 0.00 | 77 | 1015.6 |
| 20260503043841 | 40 | 184 | 1.7 | 2.6 | 0.00 | 0.14 | 0.00 | 77 | 1015.6 |
| 20260503043328 | 40 | 186 | 1.7 | 2.6 | 0.00 | 0.14 | 0.00 | 76 | 1015.5 |
| 20260503042807 | 41 | 186 | 0.9 | 2.6 | 0.00 | 0.14 | 0.00 | 76 | 1015.5 |
| 20260503042308 | 41 | 189 | 1.7 | 2.6 | 0.00 | 0.14 | 0.00 | 76 | 1015.6 |
| 20260503041810 | 41 | 194 | 1.7 | 3.5 | 0.00 | 0.14 | 0.00 | 75 | 1015.6 |
| 20260503041337 | 41 | 195 | 1.7 | 3.5 | 0.00 | 0.14 | 0.00 | 75 | 1015.6 |
| 20260503040815 | 41 | 196 | 1.7 | 3.5 | 0.00 | 0.14 | 0.00 | 75 | 1015.6 |
| 20260503040321 | 41 | 199 | 1.7 | 3.5 | 0.00 | 0.15 | 0.14 | 74 | 1015.7 |
| 20260503035849 | 42 | 203 | 1.7 | 3.5 | 0.00 | 0.15 | 0.14 | 74 | 1015.7 |
| 20260503035311 | 42 | 210 | 1.7 | 4.3 | 0.00 | 0.15 | 0.14 | 74 | 1015.7 |
| 20260503034812 | 42 | 217 | 2.6 | 4.3 | 0.00 | 0.15 | 0.14 | 73 | 1015.8 |
| 20260503034342 | 42 | 203 | 2.6 | 4.3 | 0.00 | 0.15 | 0.14 | 73 | 1015.9 |
| 20260503033823 | 42 | 205 | 2.6 | 3.5 | 0.00 | 0.15 | 0.14 | 72 | 1015.9 |
| 20260503033325 | 42 | 214 | 2.6 | 4.3 | 0.00 | 0.15 | 0.14 | 72 | 1015.9 |
| 20260503032831 | 43 | 205 | 2.6 | 4.3 | 0.00 | 0.15 | 0.14 | 71 | 1015.9 |
| 20260503032314 | 43 | 199 | 2.6 | 4.3 | 0.00 | 0.15 | 0.14 | 71 | 1016.0 |
| 20260503031812 | 43 | 201 | 2.6 | 6.1 | 0.00 | 0.15 | 0.14 | 70 | 1015.9 |
| 20260503031315 | 43 | 196 | 2.6 | 6.1 | 0.00 | 0.15 | 0.14 | 70 | 1015.9 |
| 20260503030824 | 43 | 209 | 2.6 | 4.3 | 0.00 | 0.15 | 0.14 | 69 | 1015.9 |
| 20260503030307 | 43 | 207 | 1.7 | 7.0 | 0.00 | 0.33 | 0.14 | 69 | 1016.0 |
| 20260503025810 | 43 | 209 | 1.7 | 3.5 | 0.00 | 0.33 | 0.14 | 68 | 1016.0 |
| 20260503025319 | 43 | 210 | 2.6 | 3.5 | 0.00 | 0.33 | 0.14 | 68 | 1015.9 |
| 20260503024842 | 43 | 213 | 1.7 | 3.5 | 0.00 | 0.33 | 0.14 | 67 | 1015.9 |
| 20260503024328 | 44 | 213 | 2.6 | 3.5 | 0.00 | 0.33 | 0.14 | 66 | 1016.0 |
| 20260503023810 | 44 | 211 | 1.7 | 3.5 | 0.00 | 0.33 | 0.14 | 65 | 1016.1 |
| 20260503023310 | 44 | 211 | 0.9 | 4.3 | 0.00 | 0.33 | 0.14 | 65 | 1016.0 |
| 20260503022813 | 44 | 209 | 2.6 | 4.3 | 0.00 | 0.33 | 0.14 | 65 | 1016.0 |
| 20260503022343 | 44 | 208 | 1.7 | 3.5 | 0.00 | 0.33 | 0.14 | 65 | 1016.1 |
| 20260503021825 | 44 | 211 | 1.7 | 3.5 | 0.00 | 0.33 | 0.14 | 65 | 1016.1 |
| 20260503021308 | 44 | 211 | 1.7 | 3.5 | 0.00 | 0.33 | 0.14 | 63 | 1016.1 |
| 20260503020816 | 44 | 210 | 1.7 | 3.5 | 0.00 | 0.33 | 0.14 | 62 | 1016.2 |
| 20260503020318 | 45 | 210 | 1.7 | 3.5 | 0.00 | 0.37 | 0.14 | 60 | 1016.1 |
| 20260503015826 | 45 | 215 | 0.9 | 2.6 | 0.00 | 0.37 | 0.14 | 58 | 1016.0 |
| 20260503015308 | 45 | 215 | 1.7 | 2.6 | 0.00 | 0.37 | 0.14 | 56 | 1015.9 |
| 20260503014811 | 45 | 215 | 0.9 | 3.5 | 0.00 | 0.37 | 0.14 | 56 | 1015.9 |
| 20260503014313 | 45 | 215 | 0.0 | 3.5 | 0.00 | 0.37 | 0.14 | 55 | 1016.0 |
| 20260503013822 | 45 | 280 | 0.0 | 1.7 | 0.00 | 0.37 | 0.14 | 55 | 1016.0 |
| 20260503013322 | 45 | 281 | 0.9 | 2.6 | 0.00 | 0.37 | 0.14 | 55 | 1016.0 |
| 20260503012824 | 45 | 281 | 0.9 | 2.6 | 0.00 | 0.37 | 0.14 | 56 | 1015.9 |
| 20260503012332 | 45 | 261 | 0.9 | 2.6 | 0.00 | 0.37 | 0.14 | 55 | 1015.9 |
| 20260503011815 | 45 | 258 | 1.7 | 2.6 | 0.00 | 0.37 | 0.14 | 56 | 1015.9 |
| 20260503011318 | 45 | 267 | 0.9 | 4.3 | 0.00 | 0.37 | 0.14 | 56 | 1016.0 |
| 20260503010829 | 45 | 257 | 0.9 | 4.3 | 0.00 | 0.37 | 0.14 | 56 | 1015.9 |
| 20260503010308 | 45 | 273 | 0.0 | 2.6 | 0.00 | 0.37 | 0.14 | 56 | 1015.9 |
| 20260503005811 | 45 | 277 | 0.9 | 1.7 | 0.00 | 0.37 | 0.14 | 55 | 1015.8 |
| 20260503005320 | 45 | 276 | 0.0 | 2.6 | 0.00 | 0.37 | 0.14 | 56 | 1015.8 |
| 20260503004822 | 45 | 275 | 0.9 | 2.6 | 0.00 | 0.37 | 0.14 | 55 | 1015.7 |
| 20260503004323 | 45 | 298 | 0.9 | 3.5 | 0.00 | 0.37 | 0.14 | 57 | 1015.7 |
| 20260503003831 | 45 | 297 | 0.9 | 3.5 | 0.00 | 0.37 | 0.14 | 57 | 1015.7 |
| 20260503003312 | 45 | 280 | 0.0 | 3.5 | 0.00 | 0.37 | 0.14 | 57 | 1015.8 |
| 20260503002816 | 45 | 288 | 0.9 | 2.6 | 0.00 | 0.37 | 0.14 | 59 | 1015.7 |
| 20260503002318 | 45 | 288 | 0.0 | 3.5 | 0.00 | 0.37 | 0.14 | 60 | 1015.8 |
| 20260503001827 | 45 | 287 | 0.9 | 3.5 | 0.00 | 0.37 | 0.14 | 58 | 1015.9 |
| 20260503001309 | 45 | 289 | 0.9 | 2.6 | 0.00 | 0.37 | 0.14 | 60 | 1015.8 |
| 20260503000811 | 45 | 281 | 0.9 | 2.6 | 0.00 | 0.37 | 0.14 | 60 | 1015.7 |
| 20260503000341 | 45 | 280 | 0.0 | 1.7 | 0.00 | 0.37 | 0.14 | 60 | 1015.9 |
| 20260502235823 | 45 | 281 | 0.0 | 2.6 | 0.00 | 0.37 | 0.14 | 59 | 1015.7 |
| 20260502235332 | 45 | 283 | 0.0 | 3.5 | 0.00 | 0.37 | 0.14 | 60 | 1015.8 |
| 20260502234810 | 45 | 279 | 1.7 | 3.5 | 0.00 | 0.37 | 0.14 | 61 | 1015.8 |
| 20260502234313 | 44 | 290 | 0.9 | 3.5 | 0.00 | 0.37 | 0.14 | 59 | 1015.7 |
| 20260502233815 | 44 | 276 | 0.9 | 4.3 | 0.00 | 0.37 | 0.14 | 59 | 1015.7 |
| 20260502233344 | 44 | 249 | 1.7 | 4.3 | 0.00 | 0.37 | 0.14 | 58 | 1015.7 |
| 20260502232824 | 45 | 318 | 0.9 | 3.5 | 0.00 | 0.37 | 0.14 | 61 | 1015.7 |
| 20260502232306 | 45 | 296 | 0.9 | 4.3 | 0.00 | 0.37 | 0.14 | 61 | 1015.7 |
| 20260502231815 | 45 | 297 | 0.9 | 4.3 | 0.00 | 0.37 | 0.14 | 63 | 1015.8 |
| 20260502231318 | 44 | 300 | 0.0 | 0.9 | 0.00 | 0.37 | 0.14 | 62 | 1015.8 |
| 20260502230828 | 44 | 300 | 0.0 | 0.9 | 0.00 | 0.37 | 0.14 | 62 | 1015.9 |
| 20260502230310 | 44 | 300 | 0.0 | 2.6 | 0.00 | 0.37 | 0.14 | 60 | 1015.9 |
| 20260502225811 | 44 | 300 | 0.9 | 2.6 | 0.00 | 0.37 | 0.14 | 61 | 1015.9 |
| 20260502225314 | 44 | 318 | 0.9 | 5.2 | 0.00 | 0.37 | 0.14 | 61 | 1015.9 |
| 20260502224822 | 44 | 253 | 0.9 | 3.5 | 0.00 | 0.37 | 0.14 | 61 | 1015.9 |
| 20260502224324 | 44 | 256 | 0.9 | 3.5 | 0.00 | 0.37 | 0.14 | 63 | 1016.0 |
| 20260502223807 | 44 | 244 | 1.7 | 3.5 | 0.00 | 0.37 | 0.14 | 62 | 1016.0 |
| 20260502223310 | 44 | 319 | 0.9 | 3.5 | 0.00 | 0.37 | 0.14 | 63 | 1016.0 |
| 20260502222819 | 44 | 301 | 0.0 | 2.6 | 0.00 | 0.37 | 0.14 | 64 | 1016.0 |
| 20260502222322 | 44 | 316 | 0.9 | 3.5 | 0.00 | 0.37 | 0.14 | 63 | 1016.0 |
| 20260502221824 | 44 | 319 | 0.9 | 4.3 | 0.00 | 0.37 | 0.14 | 63 | 1016.1 |
| 20260502221306 | 44 | 329 | 0.9 | 2.6 | 0.00 | 0.37 | 0.14 | 64 | 1016.1 |
| 20260502220815 | 44 | 331 | 0.9 | 4.3 | 0.00 | 0.37 | 0.14 | 65 | 1016.1 |
| 20260502220317 | 44 | 331 | 1.7 | 4.3 | 0.00 | 0.37 | 0.14 | 63 | 1016.1 |
| 20260502215825 | 44 | 281 | 0.9 | 3.5 | 0.00 | 0.37 | 0.14 | 65 | 1016.1 |
| 20260502215329 | 44 | 240 | 1.7 | 4.3 | 0.00 | 0.37 | 0.14 | 64 | 1016.1 |
| 20260502214811 | 44 | 338 | 2.6 | 4.3 | 0.00 | 0.37 | 0.14 | 63 | 1016.1 |
| 20260502214320 | 44 | 240 | 0.9 | 4.3 | 0.00 | 0.37 | 0.14 | 64 | 1016.0 |
| 20260502213806 | 44 | 283 | 0.9 | 4.3 | 0.00 | 0.37 | 0.14 | 65 | 1016.0 |
| 20260502213308 | 44 | 324 | 0.9 | 4.3 | 0.00 | 0.37 | 0.14 | 64 | 1016.0 |
| 20260502212816 | 44 | 308 | 1.7 | 4.3 | 0.00 | 0.37 | 0.14 | 64 | 1016.1 |
| 20260502212336 | 44 | 314 | 1.7 | 6.1 | 0.00 | 0.37 | 0.14 | 64 | 1016.0 |
| 20260502211824 | 44 | 284 | 2.6 | 6.1 | 0.00 | 0.37 | 0.14 | 64 | 1016.0 |